createdAt,value
2019-05-25T00:01:05.511Z,53.80
2019-05-25T00:02:11.034Z,54.00
2019-05-25T00:03:16.868Z,53.90
2019-05-25T00:04:22.423Z,54.10
2019-05-25T00:05:29.030Z,54.10
2019-05-25T00:06:34.627Z,54.10
2019-05-25T00:07:40.565Z,54.10
2019-05-25T00:08:46.044Z,54.10
2019-05-25T00:09:52.350Z,54.00
2019-05-25T00:10:57.621Z,54.00
2019-05-25T00:12:03.646Z,53.80
2019-05-25T00:13:09.006Z,53.90
2019-05-25T00:14:15.376Z,53.90
2019-05-25T00:15:20.491Z,54.00
2019-05-25T00:16:26.728Z,54.50
2019-05-25T00:17:31.841Z,54.00
2019-05-25T00:18:37.756Z,53.90
2019-05-25T00:19:42.945Z,54.00
2019-05-25T00:20:49.128Z,54.70
2019-05-25T00:21:54.282Z,54.00
2019-05-25T00:23:00.011Z,54.20
2019-05-25T00:24:12.336Z,54.30
2019-05-25T00:25:12.920Z,54.90
2019-05-25T00:26:18.272Z,54.10
2019-05-25T00:27:24.545Z,54.20
2019-05-25T00:28:30.044Z,54.20
2019-05-25T00:29:36.137Z,54.10
2019-05-25T00:30:41.825Z,54.00
2019-05-25T00:31:47.547Z,54.60
2019-05-25T00:32:53.249Z,54.00
2019-05-25T00:33:59.153Z,54.00
2019-05-25T00:35:04.355Z,54.10
2019-05-25T00:36:10.046Z,54.00
2019-05-25T00:37:15.410Z,54.10
2019-05-25T00:38:21.312Z,54.10
2019-05-25T00:39:26.610Z,54.20
2019-05-25T00:40:32.745Z,54.20
2019-05-25T00:41:37.924Z,54.30
2019-05-25T00:42:44.314Z,54.30
2019-05-25T00:43:49.422Z,54.20
2019-05-25T00:44:55.598Z,54.30
2019-05-25T00:46:00.968Z,54.40
2019-05-25T00:47:06.897Z,54.40
2019-05-25T00:48:12.663Z,54.40
2019-05-25T00:49:18.458Z,54.40
2019-05-25T00:50:23.525Z,54.40
2019-05-25T00:51:29.390Z,54.40
2019-05-25T00:52:34.932Z,54.40
2019-05-25T00:53:41.432Z,54.50
2019-05-25T00:54:46.861Z,54.60
2019-05-25T00:55:53.294Z,54.50
2019-05-25T00:56:58.256Z,54.40
2019-05-25T00:58:04.550Z,54.30
2019-05-25T00:59:09.967Z,54.90
2019-05-25T01:00:18.619Z,54.90
2019-05-25T01:01:27.851Z,54.20
2019-05-25T01:02:36.907Z,54.20
2019-05-25T01:03:43.784Z,54.10
2019-05-25T01:04:52.503Z,54.10
2019-05-25T01:05:59.715Z,54.20
2019-05-25T01:07:09.175Z,54.10
2019-05-25T01:08:16.003Z,54.20
2019-05-25T01:09:34.670Z,54.20
2019-05-25T01:10:39.806Z,54.80
2019-05-25T01:11:45.674Z,54.20
2019-05-25T01:12:50.755Z,54.10
2019-05-25T01:13:56.893Z,54.10
2019-05-25T01:15:02.149Z,54.20
2019-05-25T01:16:08.197Z,54.20
2019-05-25T01:17:13.553Z,54.30
2019-05-25T01:18:19.975Z,54.30
2019-05-25T01:19:25.078Z,54.30
2019-05-25T01:20:30.961Z,54.90
2019-05-25T01:21:36.056Z,54.20
2019-05-25T01:22:42.188Z,54.30
2019-05-25T01:23:47.548Z,54.30
2019-05-25T01:24:53.508Z,54.30
2019-05-25T01:25:58.921Z,54.30
2019-05-25T01:27:05.338Z,54.30
2019-05-25T01:28:10.824Z,54.20
2019-05-25T01:29:17.218Z,54.20
2019-05-25T01:30:22.496Z,54.20
2019-05-25T01:31:28.791Z,54.20
2019-05-25T01:32:34.527Z,54.10
2019-05-25T01:33:40.767Z,54.00
2019-05-25T01:34:45.790Z,54.40
2019-05-25T01:35:52.290Z,54.00
2019-05-25T01:36:58.291Z,53.90
2019-05-25T01:38:04.614Z,54.10
2019-05-25T01:39:09.991Z,54.00
2019-05-25T01:40:17.086Z,54.10
2019-05-25T01:41:22.344Z,54.10
2019-05-25T01:42:29.253Z,54.00
2019-05-25T01:43:34.456Z,54.10
2019-05-25T01:44:40.412Z,54.20
2019-05-25T01:45:45.859Z,54.30
2019-05-25T01:46:52.017Z,54.30
2019-05-25T01:47:57.422Z,54.40
2019-05-25T01:49:03.547Z,54.40
2019-05-25T01:50:09.475Z,54.40
2019-05-25T01:51:15.521Z,54.30
2019-05-25T01:52:20.524Z,54.40
2019-05-25T01:53:27.033Z,54.60
2019-05-25T01:54:32.444Z,54.50
2019-05-25T01:55:38.496Z,54.40
2019-05-25T01:56:43.570Z,55.00
2019-05-25T01:57:49.507Z,54.30
2019-05-25T01:58:54.911Z,55.10
2019-05-25T02:00:00.705Z,54.30
2019-05-25T02:01:06.535Z,54.30
2019-05-25T02:02:16.460Z,54.30
2019-05-25T02:03:21.813Z,54.30
2019-05-25T02:04:27.708Z,54.60
2019-05-25T02:05:33.767Z,54.40
2019-05-25T02:06:39.625Z,54.40
2019-05-25T02:07:45.003Z,55.10
2019-05-25T02:08:51.238Z,54.40
2019-05-25T02:09:56.259Z,54.50
2019-05-25T02:11:02.496Z,54.40
2019-05-25T02:12:07.626Z,54.50
2019-05-25T02:13:13.925Z,54.50
2019-05-25T02:14:19.036Z,54.50
2019-05-25T02:15:25.392Z,54.50
2019-05-25T02:16:30.791Z,54.40
2019-05-25T02:17:36.996Z,54.40
2019-05-25T02:18:45.561Z,54.40
2019-05-25T02:19:49.997Z,54.50
2019-05-25T02:20:55.099Z,54.40
2019-05-25T02:22:01.219Z,54.40
2019-05-25T02:23:06.705Z,54.50
2019-05-25T02:24:12.988Z,54.50
2019-05-25T02:25:19.209Z,54.60
2019-05-25T02:26:25.153Z,54.60
2019-05-25T02:27:30.166Z,54.60
2019-05-25T02:28:36.338Z,54.50
2019-05-25T02:29:41.916Z,54.60
2019-05-25T02:30:47.779Z,54.60
2019-05-25T02:31:53.161Z,54.60
2019-05-25T02:32:59.653Z,54.60
2019-05-25T02:34:05.129Z,55.20
2019-05-25T02:35:16.203Z,54.70
2019-05-25T02:36:21.615Z,54.70
2019-05-25T02:37:27.467Z,54.90
2019-05-25T02:38:32.919Z,54.90
2019-05-25T02:39:38.880Z,54.90
2019-05-25T02:40:44.076Z,54.90
2019-05-25T02:41:49.946Z,55.20
2019-05-25T02:42:55.187Z,54.90
2019-05-25T02:44:01.166Z,54.80
2019-05-25T02:45:06.833Z,54.90
2019-05-25T02:46:12.969Z,55.50
2019-05-25T02:47:18.452Z,54.70
2019-05-25T02:48:24.402Z,54.70
2019-05-25T02:49:30.389Z,54.90
2019-05-25T02:50:36.444Z,55.00
2019-05-25T02:51:41.891Z,55.50
2019-05-25T02:52:47.828Z,55.00
2019-05-25T02:53:53.220Z,55.00
2019-05-25T02:54:59.374Z,55.20
2019-05-25T02:56:05.013Z,55.30
2019-05-25T02:57:10.955Z,55.30
2019-05-25T02:58:16.058Z,55.40
2019-05-25T02:59:21.921Z,55.30
2019-05-25T03:00:34.929Z,55.30
2019-05-25T03:01:40.860Z,55.20
2019-05-25T03:02:46.269Z,55.20
2019-05-25T03:03:52.946Z,55.20
2019-05-25T03:04:58.951Z,55.20
2019-05-25T03:06:07.286Z,55.30
2019-05-25T03:07:14.073Z,55.20
2019-05-25T03:08:20.291Z,55.10
2019-05-25T03:09:28.369Z,55.70
2019-05-25T03:10:34.810Z,55.10
2019-05-25T03:11:41.697Z,55.10
2019-05-25T03:12:47.664Z,55.10
2019-05-25T03:13:53.446Z,55.10
2019-05-25T03:14:59.437Z,55.10
2019-05-25T03:16:04.714Z,55.00
2019-05-25T03:17:10.881Z,55.10
2019-05-25T03:18:15.978Z,55.00
2019-05-25T03:19:21.963Z,55.00
2019-05-25T03:20:27.468Z,55.10
2019-05-25T03:21:33.267Z,55.10
2019-05-25T03:22:38.648Z,55.10
2019-05-25T03:23:44.857Z,55.10
2019-05-25T03:24:50.257Z,55.10
2019-05-25T03:25:56.448Z,55.10
2019-05-25T03:27:01.631Z,55.20
2019-05-25T03:28:07.454Z,55.20
2019-05-25T03:29:13.013Z,55.30
2019-05-25T03:30:32.208Z,55.40
2019-05-25T03:31:37.902Z,55.50
2019-05-25T03:32:44.331Z,55.40
2019-05-25T03:33:49.346Z,55.50
2019-05-25T03:34:55.148Z,55.50
2019-05-25T03:36:00.903Z,55.50
2019-05-25T03:37:06.777Z,55.60
2019-05-25T03:38:12.263Z,55.70
2019-05-25T03:39:18.621Z,55.70
2019-05-25T03:40:23.889Z,55.70
2019-05-25T03:41:29.772Z,55.80
2019-05-25T03:42:36.058Z,55.80
2019-05-25T03:43:42.497Z,55.90
2019-05-25T03:44:47.957Z,56.00
2019-05-25T03:45:54.153Z,56.10
2019-05-25T03:46:59.179Z,56.20
2019-05-25T03:48:05.251Z,56.20
2019-05-25T03:49:10.749Z,56.20
2019-05-25T03:50:16.913Z,56.20
2019-05-25T03:51:22.705Z,56.20
2019-05-25T03:52:28.689Z,56.40
2019-05-25T03:53:33.852Z,56.40
2019-05-25T03:54:39.968Z,56.40
2019-05-25T03:55:45.241Z,56.50
2019-05-25T03:56:51.539Z,56.60
2019-05-25T03:57:56.894Z,56.60
2019-05-25T03:59:02.950Z,56.60
2019-05-25T04:00:08.719Z,56.20
2019-05-25T04:01:14.738Z,56.80
2019-05-25T04:02:20.057Z,56.80
2019-05-25T04:03:26.139Z,56.80
2019-05-25T04:04:31.593Z,56.90
2019-05-25T04:05:38.017Z,56.90
2019-05-25T04:06:43.029Z,56.90
2019-05-25T04:07:48.998Z,57.00
2019-05-25T04:08:54.550Z,57.00
2019-05-25T04:10:00.703Z,57.70
2019-05-25T04:11:05.889Z,57.00
2019-05-25T04:12:12.035Z,57.10
2019-05-25T04:13:17.438Z,57.00
2019-05-25T04:14:23.556Z,57.10
2019-05-25T04:15:29.377Z,57.20
2019-05-25T04:16:35.168Z,57.20
2019-05-25T04:17:40.486Z,57.30
2019-05-25T04:18:46.342Z,57.40
2019-05-25T04:19:51.400Z,57.50
2019-05-25T04:20:57.483Z,57.40
2019-05-25T04:22:02.749Z,57.40
2019-05-25T04:23:09.072Z,57.50
2019-05-25T04:24:17.877Z,57.50
2019-05-25T04:25:23.923Z,57.60
2019-05-25T04:26:29.105Z,57.60
2019-05-25T04:27:35.409Z,57.60
2019-05-25T04:28:40.903Z,57.70
2019-05-25T04:29:47.104Z,57.70
2019-05-25T04:30:52.481Z,57.70
2019-05-25T04:31:58.602Z,57.70
2019-05-25T04:33:03.727Z,57.70
2019-05-25T04:34:10.104Z,57.80
2019-05-25T04:35:15.839Z,57.80
2019-05-25T04:36:21.736Z,57.70
2019-05-25T04:37:27.219Z,57.80
2019-05-25T04:38:33.012Z,57.90
2019-05-25T04:39:38.582Z,58.00
2019-05-25T04:40:44.456Z,58.10
2019-05-25T04:41:49.560Z,58.80
2019-05-25T04:42:55.391Z,58.30
2019-05-25T04:44:00.661Z,58.40
2019-05-25T04:45:08.786Z,58.50
2019-05-25T04:46:14.004Z,58.60
2019-05-25T04:47:26.936Z,58.60
2019-05-25T04:48:28.544Z,58.80
2019-05-25T04:49:34.893Z,58.90
2019-05-25T04:50:40.494Z,58.90
2019-05-25T04:51:46.415Z,58.90
2019-05-25T04:52:51.988Z,59.10
2019-05-25T04:53:58.157Z,58.80
2019-05-25T04:55:03.116Z,58.80
2019-05-25T04:56:09.515Z,58.90
2019-05-25T04:57:14.893Z,59.10
2019-05-25T04:58:21.096Z,59.10
2019-05-25T04:59:26.681Z,59.20
2019-05-25T05:00:32.564Z,59.20
2019-05-25T05:01:38.020Z,59.30
2019-05-25T05:02:44.211Z,59.30
2019-05-25T05:03:49.564Z,59.40
2019-05-25T05:04:55.726Z,59.40
2019-05-25T05:06:00.680Z,59.50
2019-05-25T05:07:06.978Z,59.50
2019-05-25T05:08:12.440Z,59.40
2019-05-25T05:09:19.085Z,59.40
2019-05-25T05:10:24.200Z,59.30
2019-05-25T05:11:30.101Z,59.50
2019-05-25T05:12:35.376Z,59.60
2019-05-25T05:13:41.566Z,59.60
2019-05-25T05:14:46.719Z,59.60
2019-05-25T05:15:52.852Z,59.60
2019-05-25T05:16:58.113Z,59.70
2019-05-25T05:18:04.000Z,59.70
2019-05-25T05:19:09.320Z,59.70
2019-05-25T05:20:15.816Z,59.60
2019-05-25T05:21:21.460Z,59.60
2019-05-25T05:22:27.901Z,59.60
2019-05-25T05:23:33.670Z,59.50
2019-05-25T05:24:39.621Z,59.60
2019-05-25T05:25:45.801Z,60.40
2019-05-25T05:26:55.968Z,59.60
2019-05-25T05:27:59.233Z,59.50
2019-05-25T05:29:05.709Z,59.50
2019-05-25T05:30:11.594Z,59.60
2019-05-25T05:31:23.530Z,59.80
2019-05-25T05:32:27.398Z,59.20
2019-05-25T05:33:32.531Z,59.70
2019-05-25T05:34:37.695Z,59.60
2019-05-25T05:35:44.449Z,59.60
2019-05-25T05:36:50.282Z,59.60
2019-05-25T05:37:56.628Z,59.60
2019-05-25T05:39:01.909Z,59.60
2019-05-25T05:40:09.627Z,59.50
2019-05-25T05:41:17.628Z,59.40
2019-05-25T05:42:25.905Z,59.40
2019-05-25T05:43:32.085Z,59.40
2019-05-25T05:44:42.304Z,59.30
2019-05-25T05:45:51.701Z,59.30
2019-05-25T05:47:00.392Z,59.20
2019-05-25T05:48:05.842Z,59.80
2019-05-25T05:49:14.661Z,59.30
2019-05-25T05:50:20.041Z,59.30
2019-05-25T05:51:28.357Z,59.40
2019-05-25T05:52:38.637Z,60.00
2019-05-25T05:53:47.299Z,59.30
2019-05-25T05:54:54.144Z,59.30
2019-05-25T05:56:00.046Z,59.30
2019-05-25T05:57:12.261Z,60.20
2019-05-25T05:58:13.082Z,59.50
2019-05-25T05:59:18.165Z,59.40
2019-05-25T06:00:24.479Z,59.50
2019-05-25T06:01:29.669Z,59.50
2019-05-25T06:02:35.868Z,59.40
2019-05-25T06:03:41.382Z,59.60
2019-05-25T06:04:48.309Z,59.60
2019-05-25T06:05:53.227Z,59.60
2019-05-25T06:06:59.190Z,59.70
2019-05-25T06:08:05.085Z,59.80
2019-05-25T06:09:11.394Z,60.40
2019-05-25T06:10:17.730Z,59.90
2019-05-25T06:11:23.592Z,59.90
2019-05-25T06:12:28.700Z,59.90
2019-05-25T06:13:35.277Z,59.90
2019-05-25T06:14:40.229Z,59.90
2019-05-25T06:15:47.124Z,59.90
2019-05-25T06:16:52.221Z,59.80
2019-05-25T06:17:58.400Z,59.80
2019-05-25T06:19:03.520Z,59.80
2019-05-25T06:20:10.856Z,59.90
2019-05-25T06:21:16.101Z,59.80
2019-05-25T06:22:22.335Z,59.80
2019-05-25T06:23:27.355Z,60.00
2019-05-25T06:24:33.718Z,60.00
2019-05-25T06:25:39.081Z,60.80
2019-05-25T06:26:44.938Z,60.00
2019-05-25T06:27:50.413Z,60.00
2019-05-25T06:28:56.279Z,59.90
2019-05-25T06:30:01.778Z,59.90
2019-05-25T06:31:08.265Z,60.00
2019-05-25T06:32:13.621Z,60.10
2019-05-25T06:33:20.016Z,60.20
2019-05-25T06:34:25.234Z,60.40
2019-05-25T06:35:31.210Z,60.20
2019-05-25T06:36:36.759Z,60.20
2019-05-25T06:37:43.489Z,60.20
2019-05-25T06:38:48.510Z,60.40
2019-05-25T06:39:54.956Z,60.50
2019-05-25T06:41:00.034Z,60.30
2019-05-25T06:42:06.011Z,60.30
2019-05-25T06:43:11.120Z,60.30
2019-05-25T06:44:17.294Z,60.10
2019-05-25T06:45:22.548Z,60.00
2019-05-25T06:46:29.108Z,59.90
2019-05-25T06:47:34.721Z,59.90
2019-05-25T06:48:40.879Z,60.00
2019-05-25T06:49:45.886Z,59.90
2019-05-25T06:50:52.622Z,59.80
2019-05-25T06:51:57.893Z,59.80
2019-05-25T06:53:03.696Z,60.40
2019-05-25T06:54:09.354Z,60.20
2019-05-25T06:55:15.700Z,60.40
2019-05-25T06:56:20.883Z,59.60
2019-05-25T06:57:40.317Z,59.40
2019-05-25T06:58:33.914Z,59.30
2019-05-25T06:59:39.813Z,59.30
2019-05-25T07:00:45.603Z,59.10
2019-05-25T07:01:51.845Z,59.10
2019-05-25T07:02:57.624Z,59.20
2019-05-25T07:04:04.523Z,59.20
2019-05-25T07:05:10.776Z,59.20
2019-05-25T07:06:16.573Z,59.20
2019-05-25T07:07:21.968Z,59.30
2019-05-25T07:08:28.720Z,59.30
2019-05-25T07:09:33.919Z,59.10
2019-05-25T07:10:39.986Z,59.00
2019-05-25T07:11:45.029Z,59.10
2019-05-25T07:12:51.285Z,59.90
2019-05-25T07:13:56.982Z,59.20
2019-05-25T07:15:02.947Z,59.10
2019-05-25T07:16:08.358Z,59.00
2019-05-25T07:17:14.476Z,59.00
2019-05-25T07:18:19.900Z,58.90
2019-05-25T07:19:26.167Z,59.00
2019-05-25T07:20:31.802Z,58.80
2019-05-25T07:21:38.018Z,58.70
2019-05-25T07:22:43.687Z,58.70
2019-05-25T07:23:49.968Z,58.70
2019-05-25T07:24:55.487Z,58.80
2019-05-25T07:26:01.979Z,58.80
2019-05-25T07:27:07.886Z,58.60
2019-05-25T07:28:13.814Z,58.50
2019-05-25T07:29:19.693Z,58.30
2019-05-25T07:30:25.725Z,58.20
2019-05-25T07:31:30.890Z,58.30
2019-05-25T07:32:36.841Z,58.30
2019-05-25T07:33:42.008Z,58.30
2019-05-25T07:34:47.796Z,58.30
2019-05-25T07:35:53.638Z,58.10
2019-05-25T07:36:59.761Z,58.20
2019-05-25T07:38:04.936Z,58.20
2019-05-25T07:39:10.750Z,58.30
2019-05-25T07:40:16.589Z,58.10
2019-05-25T07:41:22.362Z,57.50
2019-05-25T07:42:27.636Z,58.10
2019-05-25T07:43:33.842Z,58.00
2019-05-25T07:44:39.024Z,57.90
2019-05-25T07:45:45.141Z,57.80
2019-05-25T07:46:50.685Z,57.80
2019-05-25T07:47:57.060Z,58.20
2019-05-25T07:49:02.297Z,57.60
2019-05-25T07:50:09.604Z,57.50
2019-05-25T07:51:15.354Z,57.50
2019-05-25T07:52:21.219Z,57.50
2019-05-25T07:53:27.095Z,57.40
2019-05-25T07:54:33.590Z,57.20
2019-05-25T07:55:38.857Z,57.10
2019-05-25T07:56:44.927Z,57.10
2019-05-25T07:57:50.132Z,57.10
2019-05-25T07:58:56.647Z,57.00
2019-05-25T08:00:02.228Z,56.90
2019-05-25T08:01:08.657Z,56.90
2019-05-25T08:02:13.854Z,56.90
2019-05-25T08:03:19.718Z,56.90
2019-05-25T08:04:25.237Z,56.80
2019-05-25T08:05:31.441Z,57.30
2019-05-25T08:06:37.125Z,56.70
2019-05-25T08:07:43.078Z,56.60
2019-05-25T08:08:48.528Z,56.50
2019-05-25T08:09:54.894Z,56.50
2019-05-25T08:11:00.595Z,56.50
2019-05-25T08:12:06.841Z,56.60
2019-05-25T08:13:12.087Z,56.50
2019-05-25T08:14:18.237Z,56.60
2019-05-25T08:15:23.631Z,57.10
2019-05-25T08:16:30.078Z,56.60
2019-05-25T08:17:35.545Z,56.60
2019-05-25T08:18:42.012Z,56.60
2019-05-25T08:19:47.504Z,56.60
2019-05-25T08:20:54.015Z,56.60
2019-05-25T08:21:59.763Z,57.10
2019-05-25T08:23:06.087Z,56.40
2019-05-25T08:24:11.204Z,56.40
2019-05-25T08:25:17.674Z,56.40
2019-05-25T08:26:23.203Z,56.50
2019-05-25T08:27:29.534Z,56.40
2019-05-25T08:28:34.721Z,56.30
2019-05-25T08:29:40.534Z,56.40
2019-05-25T08:30:46.084Z,56.40
2019-05-25T08:31:52.371Z,57.00
2019-05-25T08:32:57.467Z,56.20
2019-05-25T08:34:03.371Z,56.00
2019-05-25T08:35:08.939Z,56.00
2019-05-25T08:36:15.072Z,55.90
2019-05-25T08:37:20.539Z,55.80
2019-05-25T08:38:26.492Z,56.50
2019-05-25T08:39:31.401Z,55.90
2019-05-25T08:40:37.746Z,55.80
2019-05-25T08:41:45.424Z,55.70
2019-05-25T08:42:50.551Z,55.70
2019-05-25T08:43:55.895Z,55.60
2019-05-25T08:45:01.830Z,55.40
2019-05-25T08:46:07.264Z,55.40
2019-05-25T08:47:13.402Z,55.50
2019-05-25T08:48:18.530Z,55.30
2019-05-25T08:49:24.398Z,55.20
2019-05-25T08:50:38.123Z,55.20
2019-05-25T08:51:37.269Z,55.30
2019-05-25T08:52:42.460Z,55.40
2019-05-25T08:53:48.815Z,55.90
2019-05-25T08:54:56.751Z,55.20
2019-05-25T08:56:01.830Z,55.10
2019-05-25T08:57:06.978Z,55.20
2019-05-25T08:58:12.866Z,55.00
2019-05-25T08:59:18.714Z,55.10
2019-05-25T09:00:25.029Z,55.70
2019-05-25T09:01:30.831Z,55.00
2019-05-25T09:02:37.050Z,55.00
2019-05-25T09:03:42.053Z,54.80
2019-05-25T09:04:48.736Z,54.50
2019-05-25T09:05:54.043Z,54.90
2019-05-25T09:07:00.254Z,55.40
2019-05-25T09:08:06.036Z,55.60
2019-05-25T09:09:12.254Z,54.50
2019-05-25T09:10:19.308Z,54.10
2019-05-25T09:11:25.479Z,54.50
2019-05-25T09:12:31.007Z,53.70
2019-05-25T09:13:36.798Z,54.20
2019-05-25T09:14:41.849Z,53.60
2019-05-25T09:15:48.161Z,53.40
2019-05-25T09:16:53.983Z,53.40
2019-05-25T09:18:00.023Z,53.30
2019-05-25T09:19:05.121Z,53.10
2019-05-25T09:20:11.949Z,52.60
2019-05-25T09:21:17.690Z,52.50
2019-05-25T09:22:23.801Z,52.60
2019-05-25T09:23:29.203Z,52.40
2019-05-25T09:24:35.736Z,52.50
2019-05-25T09:25:41.355Z,52.50
2019-05-25T09:26:47.667Z,52.30
2019-05-25T09:27:53.718Z,52.40
2019-05-25T09:29:04.666Z,52.70
2019-05-25T09:30:07.798Z,52.20
2019-05-25T09:31:13.646Z,52.10
2019-05-25T09:32:19.494Z,52.70
2019-05-25T09:33:25.434Z,52.50
2019-05-25T09:34:30.846Z,52.40
2019-05-25T09:35:36.977Z,52.20
2019-05-25T09:36:42.379Z,51.80
2019-05-25T09:37:48.470Z,51.80
2019-05-25T09:38:53.485Z,52.50
2019-05-25T09:39:59.382Z,51.90
2019-05-25T09:41:05.172Z,51.70
2019-05-25T09:42:11.022Z,51.40
2019-05-25T09:43:16.449Z,51.00
2019-05-25T09:44:22.438Z,51.60
2019-05-25T09:45:27.554Z,50.80
2019-05-25T09:46:33.500Z,50.90
2019-05-25T09:47:39.037Z,50.50
2019-05-25T09:48:45.055Z,50.50
2019-05-25T09:49:50.489Z,50.20
2019-05-25T09:50:56.377Z,49.70
2019-05-25T09:52:01.837Z,49.70
2019-05-25T09:53:07.692Z,49.20
2019-05-25T09:54:13.746Z,49.20
2019-05-25T09:55:20.006Z,50.00
2019-05-25T09:56:25.855Z,48.90
2019-05-25T09:57:31.798Z,48.80
2019-05-25T09:58:36.933Z,49.00
2019-05-25T09:59:42.905Z,48.70
2019-05-25T10:00:48.211Z,48.60
2019-05-25T10:01:54.154Z,48.70
2019-05-25T10:02:59.331Z,49.00
2019-05-25T10:04:05.959Z,48.00
2019-05-25T10:05:11.846Z,48.00
2019-05-25T10:06:17.794Z,48.10
2019-05-25T10:07:23.301Z,48.00
2019-05-25T10:08:29.570Z,47.80
2019-05-25T10:09:35.068Z,48.00
2019-05-25T10:10:41.722Z,48.00
2019-05-25T10:11:47.135Z,48.00
2019-05-25T10:12:53.367Z,48.30
2019-05-25T10:13:58.379Z,47.50
2019-05-25T10:15:04.244Z,47.80
2019-05-25T10:16:09.465Z,47.70
2019-05-25T10:17:15.728Z,47.60
2019-05-25T10:18:20.812Z,47.10
2019-05-25T10:19:26.743Z,46.90
2019-05-25T10:20:32.084Z,46.80
2019-05-25T10:21:38.434Z,47.20
2019-05-25T10:22:43.549Z,46.60
2019-05-25T10:23:49.675Z,46.20
2019-05-25T10:24:55.271Z,46.20
2019-05-25T10:26:01.432Z,46.10
2019-05-25T10:27:06.620Z,46.20
2019-05-25T10:28:12.573Z,46.40
2019-05-25T10:29:18.028Z,46.80
2019-05-25T10:30:24.229Z,46.70
2019-05-25T10:31:30.024Z,46.60
2019-05-25T10:32:35.975Z,46.40
2019-05-25T10:33:41.084Z,46.10
2019-05-25T10:34:46.881Z,46.10
2019-05-25T10:35:52.388Z,46.00
2019-05-25T10:36:58.320Z,45.40
2019-05-25T10:38:03.754Z,45.70
2019-05-25T10:39:10.963Z,44.80
2019-05-25T10:40:17.619Z,45.00
2019-05-25T10:41:23.607Z,44.90
2019-05-25T10:42:29.054Z,45.00
2019-05-25T10:43:35.013Z,44.80
2019-05-25T10:44:40.207Z,45.00
2019-05-25T10:45:46.448Z,44.80
2019-05-25T10:46:51.808Z,45.20
2019-05-25T10:47:58.026Z,44.50
2019-05-25T10:49:03.966Z,43.90
2019-05-25T10:50:11.479Z,43.90
2019-05-25T10:51:16.636Z,43.90
2019-05-25T10:52:22.899Z,43.70
2019-05-25T10:53:28.007Z,44.20
2019-05-25T10:54:34.130Z,44.80
2019-05-25T10:55:39.473Z,44.20
2019-05-25T10:56:45.752Z,44.20
2019-05-25T10:57:51.073Z,43.10
2019-05-25T10:58:57.846Z,43.10
2019-05-25T11:00:03.203Z,42.80
2019-05-25T11:01:09.154Z,43.10
2019-05-25T11:02:14.267Z,42.20
2019-05-25T11:03:20.216Z,41.80
2019-05-25T11:04:25.253Z,41.70
2019-05-25T11:05:31.199Z,41.70
2019-05-25T11:06:36.368Z,41.60
2019-05-25T11:07:42.288Z,42.00
2019-05-25T11:08:47.674Z,41.60
2019-05-25T11:09:53.555Z,41.70
2019-05-25T11:10:59.671Z,41.50
2019-05-25T11:12:05.997Z,41.70
2019-05-25T11:13:11.158Z,41.70
2019-05-25T11:14:17.908Z,41.80
2019-05-25T11:15:23.091Z,41.80
2019-05-25T11:16:29.058Z,42.10
2019-05-25T11:17:34.557Z,42.40
2019-05-25T11:18:40.573Z,41.90
2019-05-25T11:19:46.082Z,42.30
2019-05-25T11:20:52.570Z,41.50
2019-05-25T11:21:57.972Z,41.10
2019-05-25T11:23:04.523Z,41.00
2019-05-25T11:24:09.636Z,41.10
2019-05-25T11:25:15.970Z,41.00
2019-05-25T11:26:21.057Z,41.60
2019-05-25T11:27:27.009Z,41.50
2019-05-25T11:28:32.677Z,40.50
2019-05-25T11:29:38.830Z,40.20
2019-05-25T11:30:44.366Z,40.30
2019-05-25T11:31:56.530Z,40.20
2019-05-25T11:32:57.742Z,40.10
2019-05-25T11:34:04.256Z,40.10
2019-05-25T11:35:10.259Z,40.50
2019-05-25T11:36:16.102Z,40.10
2019-05-25T11:37:21.145Z,39.80
2019-05-25T11:38:27.337Z,39.90
2019-05-25T11:39:32.496Z,39.90
2019-05-25T11:40:38.716Z,39.70
2019-05-25T11:41:44.263Z,39.70
2019-05-25T11:42:50.140Z,39.90
2019-05-25T11:43:55.519Z,40.80
2019-05-25T11:45:01.626Z,40.20
2019-05-25T11:46:06.866Z,40.20
2019-05-25T11:47:12.865Z,40.30
2019-05-25T11:48:18.667Z,40.00
2019-05-25T11:49:25.362Z,39.70
2019-05-25T11:50:30.848Z,39.90
2019-05-25T11:51:37.143Z,39.40
2019-05-25T11:52:43.101Z,39.00
2019-05-25T11:53:49.370Z,39.50
2019-05-25T11:54:54.610Z,39.50
2019-05-25T11:56:00.855Z,39.60
2019-05-25T11:57:06.400Z,39.60
2019-05-25T11:58:12.366Z,39.90
2019-05-25T11:59:17.533Z,40.00
2019-05-25T12:00:25.990Z,40.00
2019-05-25T12:01:31.316Z,40.00
2019-05-25T12:02:37.178Z,40.00
2019-05-25T12:03:42.684Z,39.90
2019-05-25T12:04:48.868Z,39.40
2019-05-25T12:05:54.698Z,39.20
2019-05-25T12:07:00.724Z,39.00
2019-05-25T12:08:06.295Z,38.90
2019-05-25T12:09:12.526Z,38.70
2019-05-25T12:10:19.844Z,38.70
2019-05-25T12:11:25.979Z,38.90
2019-05-25T12:12:31.051Z,39.70
2019-05-25T12:13:37.091Z,39.00
2019-05-25T12:14:42.559Z,38.90
2019-05-25T12:15:49.017Z,39.00
2019-05-25T12:16:54.194Z,39.00
2019-05-25T12:18:00.273Z,38.80
2019-05-25T12:19:05.452Z,39.10
2019-05-25T12:20:12.353Z,38.90
2019-05-25T12:21:17.831Z,38.90
2019-05-25T12:22:23.772Z,38.80
2019-05-25T12:23:29.257Z,39.40
2019-05-25T12:24:35.434Z,39.40
2019-05-25T12:25:40.786Z,39.40
2019-05-25T12:26:46.765Z,39.40
2019-05-25T12:27:52.599Z,39.60
2019-05-25T12:28:58.493Z,39.60
2019-05-25T12:30:03.827Z,39.40
2019-05-25T12:31:09.706Z,38.70
2019-05-25T12:32:14.951Z,38.90
2019-05-25T12:33:20.784Z,39.10
2019-05-25T12:34:26.729Z,38.90
2019-05-25T12:35:33.142Z,38.60
2019-05-25T12:36:38.343Z,38.30
2019-05-25T12:37:44.249Z,38.20
2019-05-25T12:38:49.622Z,38.10
2019-05-25T12:39:55.861Z,38.00
2019-05-25T12:41:01.626Z,38.00
2019-05-25T12:42:07.699Z,38.10
2019-05-25T12:43:13.030Z,37.90
2019-05-25T12:44:18.825Z,37.80
2019-05-25T12:45:25.759Z,37.70
2019-05-25T12:46:32.048Z,37.70
2019-05-25T12:47:37.213Z,37.50
2019-05-25T12:48:43.602Z,37.30
2019-05-25T12:49:50.958Z,37.30
2019-05-25T12:50:56.896Z,37.50
2019-05-25T12:52:02.069Z,37.30
2019-05-25T12:53:08.342Z,37.10
2019-05-25T12:54:14.303Z,37.30
2019-05-25T12:55:20.519Z,36.80
2019-05-25T12:56:25.955Z,36.80
2019-05-25T12:57:32.223Z,37.30
2019-05-25T12:58:37.967Z,37.00
2019-05-25T12:59:43.912Z,37.40
2019-05-25T13:00:56.028Z,36.60
2019-05-25T13:01:56.773Z,37.20
2019-05-25T13:03:02.276Z,37.20
2019-05-25T13:04:08.587Z,37.20
2019-05-25T13:05:14.144Z,36.80
2019-05-25T13:06:20.157Z,36.90
2019-05-25T13:07:25.784Z,37.00
2019-05-25T13:08:31.672Z,36.80
2019-05-25T13:09:37.256Z,36.80
2019-05-25T13:10:43.747Z,36.80
2019-05-25T13:11:49.694Z,37.80
2019-05-25T13:12:57.666Z,37.20
2019-05-25T13:14:14.088Z,37.60
2019-05-25T13:15:10.722Z,36.80
2019-05-25T13:16:15.757Z,37.40
2019-05-25T13:17:22.061Z,37.50
2019-05-25T13:18:27.115Z,37.10
2019-05-25T13:19:33.254Z,37.10
2019-05-25T13:20:38.646Z,36.90
2019-05-25T13:21:44.446Z,36.50
2019-05-25T13:22:49.917Z,37.20
2019-05-25T13:23:56.182Z,36.60
2019-05-25T13:25:01.355Z,36.60
2019-05-25T13:26:07.359Z,37.10
2019-05-25T13:27:12.562Z,36.20
2019-05-25T13:28:18.683Z,36.10
2019-05-25T13:29:24.322Z,35.80
2019-05-25T13:30:30.863Z,36.60
2019-05-25T13:31:35.929Z,36.90
2019-05-25T13:32:42.084Z,37.30
2019-05-25T13:33:47.123Z,37.70
2019-05-25T13:34:53.580Z,37.80
2019-05-25T13:35:58.726Z,37.00
2019-05-25T13:37:04.703Z,37.00
2019-05-25T13:38:10.055Z,35.90
2019-05-25T13:39:16.263Z,36.10
2019-05-25T13:40:21.440Z,36.40
2019-05-25T13:41:27.507Z,36.90
2019-05-25T13:42:32.767Z,36.00
2019-05-25T13:43:38.926Z,36.10
2019-05-25T13:44:44.642Z,36.10
2019-05-25T13:45:50.846Z,35.20
2019-05-25T13:46:56.267Z,35.50
2019-05-25T13:48:02.210Z,35.50
2019-05-25T13:49:07.716Z,35.50
2019-05-25T13:50:14.474Z,35.70
2019-05-25T13:51:19.664Z,35.00
2019-05-25T13:52:26.113Z,35.00
2019-05-25T13:53:33.073Z,34.90
2019-05-25T13:54:38.747Z,34.50
2019-05-25T13:55:43.854Z,34.20
2019-05-25T13:56:49.971Z,33.80
2019-05-25T13:57:54.968Z,33.80
2019-05-25T13:59:00.766Z,33.70
2019-05-25T14:00:08.804Z,33.90
2019-05-25T14:01:27.518Z,33.20
2019-05-25T14:02:21.578Z,33.50
2019-05-25T14:03:27.680Z,33.40
2019-05-25T14:04:32.791Z,34.00
2019-05-25T14:05:38.935Z,34.10
2019-05-25T14:06:44.096Z,33.90
2019-05-25T14:07:50.231Z,33.80
2019-05-25T14:08:55.582Z,34.10
2019-05-25T14:10:01.723Z,34.10